sensor_id;sensor_type;location;lat;lon;timestamp;P1;durP1;ratioP1;P2;durP2;ratioP2
26181;SDS011;13927;51.534;11.866;2023-09-19T00:00:36;2.03;;;1.50;;
26181;SDS011;13927;51.534;11.866;2023-09-19T00:03:02;4.75;;;2.10;;
26181;SDS011;13927;51.534;11.866;2023-09-19T00:05:29;3.22;;;2.20;;
26181;SDS011;13927;51.534;11.866;2023-09-19T00:08:00;5.10;;;1.67;;
26181;SDS011;13927;51.534;11.866;2023-09-19T00:10:29;3.13;;;1.90;;
26181;SDS011;13927;51.534;11.866;2023-09-19T00:12:59;3.65;;;1.88;;
26181;SDS011;13927;51.534;11.866;2023-09-19T00:15:30;7.45;;;2.15;;
26181;SDS011;13927;51.534;11.866;2023-09-19T00:18:02;2.97;;;1.80;;
26181;SDS011;13927;51.534;11.866;2023-09-19T00:20:31;3.45;;;1.83;;
26181;SDS011;13927;51.534;11.866;2023-09-19T00:22:59;3.13;;;2.30;;
26181;SDS011;13927;51.534;11.866;2023-09-19T00:25:27;6.82;;;2.28;;
26181;SDS011;13927;51.534;11.866;2023-09-19T00:27:54;5.38;;;1.98;;
26181;SDS011;13927;51.534;11.866;2023-09-19T00:30:20;4.97;;;2.80;;
26181;SDS011;13927;51.534;11.866;2023-09-19T00:32:50;5.88;;;2.50;;
26181;SDS011;13927;51.534;11.866;2023-09-19T00:35:20;4.85;;;2.00;;
26181;SDS011;13927;51.534;11.866;2023-09-19T00:37:48;3.97;;;2.00;;
26181;SDS011;13927;51.534;11.866;2023-09-19T00:40:15;3.92;;;2.25;;
26181;SDS011;13927;51.534;11.866;2023-09-19T00:42:45;3.55;;;2.55;;
26181;SDS011;13927;51.534;11.866;2023-09-19T00:45:12;3.92;;;2.90;;
26181;SDS011;13927;51.534;11.866;2023-09-19T00:47:42;6.85;;;2.90;;
26181;SDS011;13927;51.534;11.866;2023-09-19T00:50:17;6.97;;;2.38;;
26181;SDS011;13927;51.534;11.866;2023-09-19T00:52:44;4.30;;;2.47;;
26181;SDS011;13927;51.534;11.866;2023-09-19T00:55:15;4.13;;;2.80;;
26181;SDS011;13927;51.534;11.866;2023-09-19T00:57:43;6.03;;;2.63;;
26181;SDS011;13927;51.534;11.866;2023-09-19T01:00:09;3.78;;;2.70;;
26181;SDS011;13927;51.534;11.866;2023-09-19T01:02:40;5.88;;;2.00;;
26181;SDS011;13927;51.534;11.866;2023-09-19T01:05:11;5.78;;;2.28;;
26181;SDS011;13927;51.534;11.866;2023-09-19T01:07:38;3.00;;;2.17;;
26181;SDS011;13927;51.534;11.866;2023-09-19T01:10:11;3.35;;;2.33;;
26181;SDS011;13927;51.534;11.866;2023-09-19T01:18:21;3.22;;;2.35;;
26181;SDS011;13927;51.534;11.866;2023-09-19T01:30:02;4.05;;;1.98;;
26181;SDS011;13927;51.534;11.866;2023-09-19T01:32:36;3.13;;;1.90;;
26181;SDS011;13927;51.534;11.866;2023-09-19T01:35:04;6.13;;;2.17;;
26181;SDS011;13927;51.534;11.866;2023-09-19T01:37:30;4.28;;;1.90;;
26181;SDS011;13927;51.534;11.866;2023-09-19T01:39:58;4.35;;;2.10;;
26181;SDS011;13927;51.534;11.866;2023-09-19T01:45:59;5.10;;;1.80;;
26181;SDS011;13927;51.534;11.866;2023-09-19T01:48:48;4.07;;;1.67;;
26181;SDS011;13927;51.534;11.866;2023-09-19T01:51:37;2.80;;;2.10;;
26181;SDS011;13927;51.534;11.866;2023-09-19T01:54:21;3.17;;;1.50;;
26181;SDS011;13927;51.534;11.866;2023-09-19T02:00:02;3.50;;;1.98;;
26181;SDS011;13927;51.534;11.866;2023-09-19T02:02:34;6.20;;;2.05;;
26181;SDS011;13927;51.534;11.866;2023-09-19T02:05:05;6.57;;;2.35;;
26181;SDS011;13927;51.534;11.866;2023-09-19T02:07:31;4.35;;;2.25;;
26181;SDS011;13927;51.534;11.866;2023-09-19T02:09:58;4.80;;;2.17;;
26181;SDS011;13927;51.534;11.866;2023-09-19T02:12:25;3.80;;;2.10;;
26181;SDS011;13927;51.534;11.866;2023-09-19T02:14:51;3.15;;;1.80;;
26181;SDS011;13927;51.534;11.866;2023-09-19T02:17:17;3.97;;;2.00;;
26181;SDS011;13927;51.534;11.866;2023-09-19T02:19:43;3.10;;;2.05;;
26181;SDS011;13927;51.534;11.866;2023-09-19T02:22:09;2.40;;;1.65;;
26181;SDS011;13927;51.534;11.866;2023-09-19T02:24:35;6.43;;;1.65;;
26181;SDS011;13927;51.534;11.866;2023-09-19T02:27:03;2.13;;;1.55;;
26181;SDS011;13927;51.534;11.866;2023-09-19T02:29:30;4.75;;;1.88;;
26181;SDS011;13927;51.534;11.866;2023-09-19T02:31:56;3.65;;;1.75;;
26181;SDS011;13927;51.534;11.866;2023-09-19T02:34:22;2.20;;;1.70;;
26181;SDS011;13927;51.534;11.866;2023-09-19T02:36:48;3.15;;;1.50;;
26181;SDS011;13927;51.534;11.866;2023-09-19T02:39:14;2.08;;;1.80;;
26181;SDS011;13927;51.534;11.866;2023-09-19T02:41:40;7.35;;;2.03;;
26181;SDS011;13927;51.534;11.866;2023-09-19T02:44:06;4.68;;;1.70;;
26181;SDS011;13927;51.534;11.866;2023-09-19T02:46:33;3.97;;;1.80;;
26181;SDS011;13927;51.534;11.866;2023-09-19T02:49:01;3.33;;;1.42;;
26181;SDS011;13927;51.534;11.866;2023-09-19T02:51:31;5.10;;;2.00;;
26181;SDS011;13927;51.534;11.866;2023-09-19T02:53:58;4.13;;;2.00;;
26181;SDS011;13927;51.534;11.866;2023-09-19T02:56:24;4.70;;;1.83;;
26181;SDS011;13927;51.534;11.866;2023-09-19T02:58:50;4.13;;;1.70;;
26181;SDS011;13927;51.534;11.866;2023-09-19T03:01:16;3.47;;;1.77;;
26181;SDS011;13927;51.534;11.866;2023-09-19T03:03:43;3.40;;;1.77;;
26181;SDS011;13927;51.534;11.866;2023-09-19T03:06:10;4.22;;;1.63;;
26181;SDS011;13927;51.534;11.866;2023-09-19T03:08:38;3.65;;;1.80;;
26181;SDS011;13927;51.534;11.866;2023-09-19T03:11:05;3.42;;;1.75;;
26181;SDS011;13927;51.534;11.866;2023-09-19T03:13:32;3.10;;;1.70;;
26181;SDS011;13927;51.534;11.866;2023-09-19T03:15:58;4.30;;;1.90;;
26181;SDS011;13927;51.534;11.866;2023-09-19T03:18:26;3.90;;;1.50;;
26181;SDS011;13927;51.534;11.866;2023-09-19T03:20:53;5.97;;;1.40;;
26181;SDS011;13927;51.534;11.866;2023-09-19T03:23:20;3.35;;;1.65;;
26181;SDS011;13927;51.534;11.866;2023-09-19T03:25:46;4.60;;;1.75;;
26181;SDS011;13927;51.534;11.866;2023-09-19T03:28:13;3.10;;;1.50;;
26181;SDS011;13927;51.534;11.866;2023-09-19T03:30:40;2.10;;;1.63;;
26181;SDS011;13927;51.534;11.866;2023-09-19T03:33:07;3.95;;;1.45;;
26181;SDS011;13927;51.534;11.866;2023-09-19T03:35:33;3.63;;;1.65;;
26181;SDS011;13927;51.534;11.866;2023-09-19T03:37:59;5.07;;;2.13;;
26181;SDS011;13927;51.534;11.866;2023-09-19T03:40:25;3.28;;;1.92;;
26181;SDS011;13927;51.534;11.866;2023-09-19T03:42:51;2.58;;;1.52;;
26181;SDS011;13927;51.534;11.866;2023-09-19T03:45:17;3.22;;;1.60;;
26181;SDS011;13927;51.534;11.866;2023-09-19T03:47:43;4.05;;;2.08;;
26181;SDS011;13927;51.534;11.866;2023-09-19T03:50:12;6.07;;;1.90;;
26181;SDS011;13927;51.534;11.866;2023-09-19T03:52:42;3.40;;;1.60;;
26181;SDS011;13927;51.534;11.866;2023-09-19T03:55:11;4.45;;;1.60;;
26181;SDS011;13927;51.534;11.866;2023-09-19T03:57:37;2.72;;;1.63;;
26181;SDS011;13927;51.534;11.866;2023-09-19T04:00:03;4.05;;;2.15;;
26181;SDS011;13927;51.534;11.866;2023-09-19T04:02:30;2.92;;;1.70;;
26181;SDS011;13927;51.534;11.866;2023-09-19T04:04:58;2.60;;;1.80;;
26181;SDS011;13927;51.534;11.866;2023-09-19T04:07:24;6.45;;;1.58;;
26181;SDS011;13927;51.534;11.866;2023-09-19T04:09:53;3.60;;;2.15;;
26181;SDS011;13927;51.534;11.866;2023-09-19T04:12:20;2.70;;;1.50;;
26181;SDS011;13927;51.534;11.866;2023-09-19T04:14:46;2.38;;;1.65;;
26181;SDS011;13927;51.534;11.866;2023-09-19T04:17:12;3.30;;;1.55;;
26181;SDS011;13927;51.534;11.866;2023-09-19T04:19:37;5.00;;;1.95;;
26181;SDS011;13927;51.534;11.866;2023-09-19T04:22:03;2.92;;;1.75;;
26181;SDS011;13927;51.534;11.866;2023-09-19T04:24:29;3.50;;;1.77;;
26181;SDS011;13927;51.534;11.866;2023-09-19T04:26:56;3.33;;;1.60;;
26181;SDS011;13927;51.534;11.866;2023-09-19T04:29:22;2.88;;;1.67;;
26181;SDS011;13927;51.534;11.866;2023-09-19T04:31:48;3.30;;;1.80;;
26181;SDS011;13927;51.534;11.866;2023-09-19T04:34:13;1.95;;;1.42;;
26181;SDS011;13927;51.534;11.866;2023-09-19T04:36:42;5.45;;;1.70;;
26181;SDS011;13927;51.534;11.866;2023-09-19T04:39:08;2.97;;;1.52;;
26181;SDS011;13927;51.534;11.866;2023-09-19T04:41:36;3.60;;;1.92;;
26181;SDS011;13927;51.534;11.866;2023-09-19T04:44:06;2.78;;;1.65;;
26181;SDS011;13927;51.534;11.866;2023-09-19T04:46:33;5.15;;;1.67;;
26181;SDS011;13927;51.534;11.866;2023-09-19T04:49:02;3.38;;;1.83;;
26181;SDS011;13927;51.534;11.866;2023-09-19T04:51:27;3.83;;;1.70;;
26181;SDS011;13927;51.534;11.866;2023-09-19T04:53:58;3.35;;;1.70;;
26181;SDS011;13927;51.534;11.866;2023-09-19T04:56:23;3.28;;;1.60;;
26181;SDS011;13927;51.534;11.866;2023-09-19T04:58:49;2.40;;;1.65;;
26181;SDS011;13927;51.534;11.866;2023-09-19T05:01:15;4.82;;;1.95;;
26181;SDS011;13927;51.534;11.866;2023-09-19T05:03:41;3.88;;;1.80;;
26181;SDS011;13927;51.534;11.866;2023-09-19T05:06:10;2.35;;;1.88;;
26181;SDS011;13927;51.534;11.866;2023-09-19T05:08:35;3.13;;;1.92;;
26181;SDS011;13927;51.534;11.866;2023-09-19T05:11:01;3.30;;;1.95;;
26181;SDS011;13927;51.534;11.866;2023-09-19T05:13:27;6.18;;;2.00;;
26181;SDS011;13927;51.534;11.866;2023-09-19T05:15:53;2.53;;;1.70;;
26181;SDS011;13927;51.534;11.866;2023-09-19T05:18:19;4.15;;;2.08;;
26181;SDS011;13927;51.534;11.866;2023-09-19T05:20:45;4.85;;;1.90;;
26181;SDS011;13927;51.534;11.866;2023-09-19T05:23:10;5.22;;;1.70;;
26181;SDS011;13927;51.534;11.866;2023-09-19T05:25:38;6.38;;;1.95;;
26181;SDS011;13927;51.534;11.866;2023-09-19T05:28:06;3.92;;;1.60;;
26181;SDS011;13927;51.534;11.866;2023-09-19T05:30:33;2.58;;;1.52;;
26181;SDS011;13927;51.534;11.866;2023-09-19T05:33:01;3.58;;;1.63;;
26181;SDS011;13927;51.534;11.866;2023-09-19T05:35:29;2.95;;;1.58;;
26181;SDS011;13927;51.534;11.866;2023-09-19T05:37:56;4.38;;;1.65;;
26181;SDS011;13927;51.534;11.866;2023-09-19T05:40:23;2.40;;;1.60;;
26181;SDS011;13927;51.534;11.866;2023-09-19T05:42:50;2.33;;;1.40;;
26181;SDS011;13927;51.534;11.866;2023-09-19T05:45:16;3.75;;;1.70;;
26181;SDS011;13927;51.534;11.866;2023-09-19T05:47:52;3.35;;;1.80;;
26181;SDS011;13927;51.534;11.866;2023-09-19T05:50:26;3.42;;;1.58;;
26181;SDS011;13927;51.534;11.866;2023-09-19T05:52:52;2.25;;;1.33;;
26181;SDS011;13927;51.534;11.866;2023-09-19T05:55:21;2.40;;;1.40;;
26181;SDS011;13927;51.534;11.866;2023-09-19T05:57:50;3.97;;;1.70;;
26181;SDS011;13927;51.534;11.866;2023-09-19T06:00:18;3.35;;;1.90;;
26181;SDS011;13927;51.534;11.866;2023-09-19T06:02:51;3.78;;;1.67;;
26181;SDS011;13927;51.534;11.866;2023-09-19T06:05:18;2.97;;;1.30;;
26181;SDS011;13927;51.534;11.866;2023-09-19T06:07:45;3.15;;;1.77;;
26181;SDS011;13927;51.534;11.866;2023-09-19T06:10:12;3.05;;;1.50;;
26181;SDS011;13927;51.534;11.866;2023-09-19T06:12:47;3.88;;;2.00;;
26181;SDS011;13927;51.534;11.866;2023-09-19T06:15:14;3.90;;;1.67;;
26181;SDS011;13927;51.534;11.866;2023-09-19T06:17:47;3.60;;;1.58;;
26181;SDS011;13927;51.534;11.866;2023-09-19T06:20:15;4.53;;;1.50;;
26181;SDS011;13927;51.534;11.866;2023-09-19T06:22:43;4.30;;;1.55;;
26181;SDS011;13927;51.534;11.866;2023-09-19T06:25:10;3.42;;;1.98;;
26181;SDS011;13927;51.534;11.866;2023-09-19T06:27:53;3.50;;;1.50;;
26181;SDS011;13927;51.534;11.866;2023-09-19T06:30:20;4.18;;;1.50;;
26181;SDS011;13927;51.534;11.866;2023-09-19T06:32:58;6.10;;;1.42;;
26181;SDS011;13927;51.534;11.866;2023-09-19T06:35:25;3.25;;;1.80;;
26181;SDS011;13927;51.534;11.866;2023-09-19T06:37:53;2.45;;;1.40;;
26181;SDS011;13927;51.534;11.866;2023-09-19T06:40:22;2.17;;;1.25;;
26181;SDS011;13927;51.534;11.866;2023-09-19T06:42:52;3.08;;;1.77;;
26181;SDS011;13927;51.534;11.866;2023-09-19T06:45:19;3.50;;;1.55;;
26181;SDS011;13927;51.534;11.866;2023-09-19T06:47:47;3.25;;;1.30;;
26181;SDS011;13927;51.534;11.866;2023-09-19T06:50:20;4.10;;;1.48;;
26181;SDS011;13927;51.534;11.866;2023-09-19T06:52:53;4.88;;;2.03;;
26181;SDS011;13927;51.534;11.866;2023-09-19T06:55:22;2.65;;;1.77;;
26181;SDS011;13927;51.534;11.866;2023-09-19T06:57:53;4.53;;;2.08;;
26181;SDS011;13927;51.534;11.866;2023-09-19T07:00:20;3.53;;;1.65;;
26181;SDS011;13927;51.534;11.866;2023-09-19T07:02:59;2.13;;;1.35;;
26181;SDS011;13927;51.534;11.866;2023-09-19T07:05:32;2.80;;;1.65;;
26181;SDS011;13927;51.534;11.866;2023-09-19T07:07:58;3.75;;;1.45;;
26181;SDS011;13927;51.534;11.866;2023-09-19T07:10:26;2.88;;;1.55;;
26181;SDS011;13927;51.534;11.866;2023-09-19T07:12:56;3.63;;;1.42;;
26181;SDS011;13927;51.534;11.866;2023-09-19T07:15:24;4.72;;;1.50;;
26181;SDS011;13927;51.534;11.866;2023-09-19T07:18:06;2.78;;;1.40;;
26181;SDS011;13927;51.534;11.866;2023-09-19T07:20:36;4.88;;;1.63;;
26181;SDS011;13927;51.534;11.866;2023-09-19T07:23:03;5.70;;;1.58;;
26181;SDS011;13927;51.534;11.866;2023-09-19T07:25:29;2.85;;;1.63;;
26181;SDS011;13927;51.534;11.866;2023-09-19T07:27:56;5.80;;;1.90;;
26181;SDS011;13927;51.534;11.866;2023-09-19T07:30:26;5.32;;;1.77;;
26181;SDS011;13927;51.534;11.866;2023-09-19T07:32:53;4.00;;;2.22;;
26181;SDS011;13927;51.534;11.866;2023-09-19T07:35:19;6.53;;;2.22;;
26181;SDS011;13927;51.534;11.866;2023-09-19T07:37:46;4.53;;;1.98;;
26181;SDS011;13927;51.534;11.866;2023-09-19T07:40:14;2.72;;;1.55;;
26181;SDS011;13927;51.534;11.866;2023-09-19T07:42:41;6.00;;;1.95;;
26181;SDS011;13927;51.534;11.866;2023-09-19T07:45:09;6.20;;;2.00;;
26181;SDS011;13927;51.534;11.866;2023-09-19T07:47:49;3.60;;;1.90;;
26181;SDS011;13927;51.534;11.866;2023-09-19T07:50:17;5.43;;;1.80;;
26181;SDS011;13927;51.534;11.866;2023-09-19T07:52:45;5.78;;;1.95;;
26181;SDS011;13927;51.534;11.866;2023-09-19T07:55:12;5.32;;;1.73;;
26181;SDS011;13927;51.534;11.866;2023-09-19T07:57:45;5.00;;;1.73;;
26181;SDS011;13927;51.534;11.866;2023-09-19T08:00:12;7.00;;;2.22;;
26181;SDS011;13927;51.534;11.866;2023-09-19T08:02:40;5.30;;;1.83;;
26181;SDS011;13927;51.534;11.866;2023-09-19T08:05:08;4.55;;;1.70;;
26181;SDS011;13927;51.534;11.866;2023-09-19T08:07:36;5.57;;;1.80;;
26181;SDS011;13927;51.534;11.866;2023-09-19T08:10:07;5.38;;;1.70;;
26181;SDS011;13927;51.534;11.866;2023-09-19T08:12:38;4.80;;;1.67;;
26181;SDS011;13927;51.534;11.866;2023-09-19T08:15:12;4.63;;;1.83;;
26181;SDS011;13927;51.534;11.866;2023-09-19T08:17:39;4.65;;;2.08;;
26181;SDS011;13927;51.534;11.866;2023-09-19T08:20:07;5.68;;;1.55;;
26181;SDS011;13927;51.534;11.866;2023-09-19T08:22:42;5.22;;;1.80;;
26181;SDS011;13927;51.534;11.866;2023-09-19T08:25:21;6.90;;;1.58;;
26181;SDS011;13927;51.534;11.866;2023-09-19T08:27:51;5.85;;;1.70;;
26181;SDS011;13927;51.534;11.866;2023-09-19T08:30:19;6.75;;;1.90;;
26181;SDS011;13927;51.534;11.866;2023-09-19T08:32:56;3.50;;;1.92;;
26181;SDS011;13927;51.534;11.866;2023-09-19T08:35:24;6.97;;;2.30;;
26181;SDS011;13927;51.534;11.866;2023-09-19T08:37:50;5.80;;;2.05;;
26181;SDS011;13927;51.534;11.866;2023-09-19T08:40:16;6.72;;;2.42;;
26181;SDS011;13927;51.534;11.866;2023-09-19T08:42:49;7.32;;;1.90;;
26181;SDS011;13927;51.534;11.866;2023-09-19T08:45:20;5.45;;;1.95;;
26181;SDS011;13927;51.534;11.866;2023-09-19T08:51:07;5.35;;;1.80;;
26181;SDS011;13927;51.534;11.866;2023-09-19T08:53:58;4.75;;;2.05;;
26181;SDS011;13927;51.534;11.866;2023-09-19T08:56:32;6.65;;;1.88;;
26181;SDS011;13927;51.534;11.866;2023-09-19T08:59:00;3.28;;;1.60;;
26181;SDS011;13927;51.534;11.866;2023-09-19T09:01:36;2.78;;;1.58;;
26181;SDS011;13927;51.534;11.866;2023-09-19T09:04:07;4.35;;;1.90;;
26181;SDS011;13927;51.534;11.866;2023-09-19T09:06:38;4.15;;;1.73;;
26181;SDS011;13927;51.534;11.866;2023-09-19T09:09:05;4.93;;;1.70;;
26181;SDS011;13927;51.534;11.866;2023-09-19T09:11:34;6.28;;;2.03;;
26181;SDS011;13927;51.534;11.866;2023-09-19T09:14:05;3.42;;;1.83;;
26181;SDS011;13927;51.534;11.866;2023-09-19T09:16:32;4.85;;;2.47;;
26181;SDS011;13927;51.534;11.866;2023-09-19T09:18:59;6.32;;;1.92;;
26181;SDS011;13927;51.534;11.866;2023-09-19T09:21:26;5.50;;;1.90;;
26181;SDS011;13927;51.534;11.866;2023-09-19T09:23:53;6.72;;;2.10;;
26181;SDS011;13927;51.534;11.866;2023-09-19T09:27:02;6.45;;;2.20;;
26181;SDS011;13927;51.534;11.866;2023-09-19T09:29:09;8.05;;;2.10;;
26181;SDS011;13927;51.534;11.866;2023-09-19T09:31:36;4.28;;;2.20;;
26181;SDS011;13927;51.534;11.866;2023-09-19T09:34:03;6.00;;;2.33;;
26181;SDS011;13927;51.534;11.866;2023-09-19T09:36:39;4.13;;;1.77;;
26181;SDS011;13927;51.534;11.866;2023-09-19T09:39:08;3.03;;;1.50;;
26181;SDS011;13927;51.534;11.866;2023-09-19T09:41:43;3.42;;;1.98;;
26181;SDS011;13927;51.534;11.866;2023-09-19T09:44:14;6.45;;;2.05;;
26181;SDS011;13927;51.534;11.866;2023-09-19T09:46:47;4.20;;;1.90;;
26181;SDS011;13927;51.534;11.866;2023-09-19T09:49:23;7.70;;;2.13;;
26181;SDS011;13927;51.534;11.866;2023-09-19T09:52:01;4.97;;;1.75;;
26181;SDS011;13927;51.534;11.866;2023-09-19T09:54:33;7.05;;;1.98;;
26181;SDS011;13927;51.534;11.866;2023-09-19T09:59:45;4.50;;;2.00;;
26181;SDS011;13927;51.534;11.866;2023-09-19T10:02:19;3.65;;;1.80;;
26181;SDS011;13927;51.534;11.866;2023-09-19T10:04:53;4.30;;;2.03;;
26181;SDS011;13927;51.534;11.866;2023-09-19T10:07:32;5.53;;;1.73;;
26181;SDS011;13927;51.534;11.866;2023-09-19T10:10:15;4.10;;;1.80;;
26181;SDS011;13927;51.534;11.866;2023-09-19T10:13:20;4.40;;;2.10;;
26181;SDS011;13927;51.534;11.866;2023-09-19T10:15:49;5.82;;;2.50;;
26181;SDS011;13927;51.534;11.866;2023-09-19T10:18:24;6.40;;;1.95;;
26181;SDS011;13927;51.534;11.866;2023-09-19T10:20:53;5.35;;;1.85;;
26181;SDS011;13927;51.534;11.866;2023-09-19T10:23:20;6.38;;;2.13;;
26181;SDS011;13927;51.534;11.866;2023-09-19T10:25:49;5.53;;;2.22;;
26181;SDS011;13927;51.534;11.866;2023-09-19T10:28:18;6.88;;;2.63;;
26181;SDS011;13927;51.534;11.866;2023-09-19T10:30:51;5.53;;;2.15;;
26181;SDS011;13927;51.534;11.866;2023-09-19T10:33:20;4.40;;;2.33;;
26181;SDS011;13927;51.534;11.866;2023-09-19T10:35:54;5.13;;;1.85;;
26181;SDS011;13927;51.534;11.866;2023-09-19T10:38:26;4.00;;;1.55;;
26181;SDS011;13927;51.534;11.866;2023-09-19T10:40:55;4.82;;;1.83;;
26181;SDS011;13927;51.534;11.866;2023-09-19T10:43:26;4.80;;;2.15;;
26181;SDS011;13927;51.534;11.866;2023-09-19T10:46:00;5.60;;;2.05;;
26181;SDS011;13927;51.534;11.866;2023-09-19T10:48:34;5.55;;;2.00;;
26181;SDS011;13927;51.534;11.866;2023-09-19T10:51:03;5.18;;;1.95;;
26181;SDS011;13927;51.534;11.866;2023-09-19T10:53:59;4.22;;;1.63;;
26181;SDS011;13927;51.534;11.866;2023-09-19T10:56:41;3.72;;;1.55;;
26181;SDS011;13927;51.534;11.866;2023-09-19T10:59:15;4.55;;;1.52;;
26181;SDS011;13927;51.534;11.866;2023-09-19T11:07:08;5.05;;;2.20;;
26181;SDS011;13927;51.534;11.866;2023-09-19T11:09:50;3.97;;;1.70;;
26181;SDS011;13927;51.534;11.866;2023-09-19T11:15:11;5.15;;;1.90;;
26181;SDS011;13927;51.534;11.866;2023-09-19T11:26:50;5.60;;;2.03;;
26181;SDS011;13927;51.534;11.866;2023-09-19T11:29:26;5.35;;;2.03;;
26181;SDS011;13927;51.534;11.866;2023-09-19T11:31:56;7.13;;;2.17;;
26181;SDS011;13927;51.534;11.866;2023-09-19T11:40:25;5.03;;;2.15;;
26181;SDS011;13927;51.534;11.866;2023-09-19T11:42:42;7.85;;;2.47;;
26181;SDS011;13927;51.534;11.866;2023-09-19T11:46:04;7.43;;;2.42;;
26181;SDS011;13927;51.534;11.866;2023-09-19T11:48:12;6.25;;;2.03;;
26181;SDS011;13927;51.534;11.866;2023-09-19T11:50:42;3.80;;;1.42;;
26181;SDS011;13927;51.534;11.866;2023-09-19T11:53:12;5.93;;;1.75;;
26181;SDS011;13927;51.534;11.866;2023-09-19T11:55:42;8.90;;;1.70;;
26181;SDS011;13927;51.534;11.866;2023-09-19T11:58:08;6.15;;;1.90;;
26181;SDS011;13927;51.534;11.866;2023-09-19T12:00:37;4.75;;;2.05;;
26181;SDS011;13927;51.534;11.866;2023-09-19T12:03:09;3.10;;;1.67;;
26181;SDS011;13927;51.534;11.866;2023-09-19T12:05:39;5.00;;;1.75;;
26181;SDS011;13927;51.534;11.866;2023-09-19T12:08:06;5.20;;;1.83;;
26181;SDS011;13927;51.534;11.866;2023-09-19T12:10:44;4.70;;;1.95;;
26181;SDS011;13927;51.534;11.866;2023-09-19T12:13:15;6.60;;;1.73;;
26181;SDS011;13927;51.534;11.866;2023-09-19T12:15:46;7.90;;;2.33;;
26181;SDS011;13927;51.534;11.866;2023-09-19T12:18:27;5.80;;;2.08;;
26181;SDS011;13927;51.534;11.866;2023-09-19T12:23:30;6.70;;;1.83;;
26181;SDS011;13927;51.534;11.866;2023-09-19T12:25:56;4.28;;;1.63;;
26181;SDS011;13927;51.534;11.866;2023-09-19T12:28:25;5.90;;;1.90;;
26181;SDS011;13927;51.534;11.866;2023-09-19T12:31:06;5.15;;;1.92;;
26181;SDS011;13927;51.534;11.866;2023-09-19T12:33:33;5.13;;;1.73;;
26181;SDS011;13927;51.534;11.866;2023-09-19T12:36:18;4.57;;;1.90;;
26181;SDS011;13927;51.534;11.866;2023-09-19T12:38:54;3.53;;;1.88;;
26181;SDS011;13927;51.534;11.866;2023-09-19T12:41:21;4.70;;;1.80;;
26181;SDS011;13927;51.534;11.866;2023-09-19T12:43:48;4.65;;;2.33;;
26181;SDS011;13927;51.534;11.866;2023-09-19T12:46:19;4.85;;;1.98;;
26181;SDS011;13927;51.534;11.866;2023-09-19T12:51:47;4.57;;;2.00;;
26181;SDS011;13927;51.534;11.866;2023-09-19T12:54:15;5.13;;;2.15;;
26181;SDS011;13927;51.534;11.866;2023-09-19T12:56:45;5.05;;;2.15;;
26181;SDS011;13927;51.534;11.866;2023-09-19T12:59:14;5.72;;;2.10;;
26181;SDS011;13927;51.534;11.866;2023-09-19T13:01:42;6.03;;;1.90;;
26181;SDS011;13927;51.534;11.866;2023-09-19T13:04:18;5.47;;;2.08;;
26181;SDS011;13927;51.534;11.866;2023-09-19T13:06:51;5.05;;;2.25;;
26181;SDS011;13927;51.534;11.866;2023-09-19T13:09:21;6.50;;;2.15;;
26181;SDS011;13927;51.534;11.866;2023-09-19T13:11:59;6.78;;;2.40;;
26181;SDS011;13927;51.534;11.866;2023-09-19T13:14:28;4.65;;;1.95;;
26181;SDS011;13927;51.534;11.866;2023-09-19T13:17:08;6.10;;;2.25;;
26181;SDS011;13927;51.534;11.866;2023-09-19T13:19:42;6.05;;;2.30;;
26181;SDS011;13927;51.534;11.866;2023-09-19T13:25:11;6.45;;;2.45;;
26181;SDS011;13927;51.534;11.866;2023-09-19T13:27:52;3.45;;;1.75;;
26181;SDS011;13927;51.534;11.866;2023-09-19T13:30:21;5.65;;;2.45;;
26181;SDS011;13927;51.534;11.866;2023-09-19T13:32:50;4.28;;;2.10;;
26181;SDS011;13927;51.534;11.866;2023-09-19T13:35:19;8.57;;;2.58;;
26181;SDS011;13927;51.534;11.866;2023-09-19T13:37:47;8.43;;;2.13;;
26181;SDS011;13927;51.534;11.866;2023-09-19T13:40:16;4.30;;;2.40;;
26181;SDS011;13927;51.534;11.866;2023-09-19T13:42:43;5.43;;;2.65;;
26181;SDS011;13927;51.534;11.866;2023-09-19T13:45:10;4.75;;;2.53;;
26181;SDS011;13927;51.534;11.866;2023-09-19T13:47:38;9.77;;;2.42;;
26181;SDS011;13927;51.534;11.866;2023-09-19T13:50:06;10.48;;;2.50;;
26181;SDS011;13927;51.534;11.866;2023-09-19T13:52:33;5.95;;;2.13;;
26181;SDS011;13927;51.534;11.866;2023-09-19T13:54:59;5.97;;;2.58;;
26181;SDS011;13927;51.534;11.866;2023-09-19T13:57:26;4.72;;;2.60;;
26181;SDS011;13927;51.534;11.866;2023-09-19T13:59:54;7.43;;;2.22;;
26181;SDS011;13927;51.534;11.866;2023-09-19T14:02:22;6.05;;;2.75;;
26181;SDS011;13927;51.534;11.866;2023-09-19T14:04:49;4.93;;;2.55;;
26181;SDS011;13927;51.534;11.866;2023-09-19T14:07:16;7.60;;;2.22;;
26181;SDS011;13927;51.534;11.866;2023-09-19T14:09:45;5.00;;;2.17;;
26181;SDS011;13927;51.534;11.866;2023-09-19T14:12:12;6.00;;;2.35;;
26181;SDS011;13927;51.534;11.866;2023-09-19T14:14:39;5.82;;;2.28;;
26181;SDS011;13927;51.534;11.866;2023-09-19T14:17:06;8.63;;;2.08;;
26181;SDS011;13927;51.534;11.866;2023-09-19T14:19:33;7.20;;;2.60;;
26181;SDS011;13927;51.534;11.866;2023-09-19T14:22:00;5.70;;;2.80;;
26181;SDS011;13927;51.534;11.866;2023-09-19T14:24:32;8.15;;;3.00;;
26181;SDS011;13927;51.534;11.866;2023-09-19T14:26:59;5.60;;;2.63;;
26181;SDS011;13927;51.534;11.866;2023-09-19T14:29:26;4.57;;;2.05;;
26181;SDS011;13927;51.534;11.866;2023-09-19T14:31:52;7.10;;;2.65;;
26181;SDS011;13927;51.534;11.866;2023-09-19T14:34:22;6.15;;;2.42;;
26181;SDS011;13927;51.534;11.866;2023-09-19T14:36:49;5.80;;;2.30;;
26181;SDS011;13927;51.534;11.866;2023-09-19T14:39:15;4.70;;;1.90;;
26181;SDS011;13927;51.534;11.866;2023-09-19T14:41:42;7.30;;;2.70;;
26181;SDS011;13927;51.534;11.866;2023-09-19T14:44:08;6.57;;;2.42;;
26181;SDS011;13927;51.534;11.866;2023-09-19T14:46:35;11.43;;;3.10;;
26181;SDS011;13927;51.534;11.866;2023-09-19T14:49:02;7.93;;;2.42;;
26181;SDS011;13927;51.534;11.866;2023-09-19T14:51:29;8.25;;;2.88;;
26181;SDS011;13927;51.534;11.866;2023-09-19T14:53:56;3.75;;;2.00;;
26181;SDS011;13927;51.534;11.866;2023-09-19T14:56:23;7.00;;;2.50;;
26181;SDS011;13927;51.534;11.866;2023-09-19T14:58:50;5.60;;;2.22;;
26181;SDS011;13927;51.534;11.866;2023-09-19T15:01:17;5.15;;;2.33;;
26181;SDS011;13927;51.534;11.866;2023-09-19T15:03:44;4.53;;;2.35;;
26181;SDS011;13927;51.534;11.866;2023-09-19T15:06:12;6.63;;;2.38;;
26181;SDS011;13927;51.534;11.866;2023-09-19T15:08:39;4.63;;;1.92;;
26181;SDS011;13927;51.534;11.866;2023-09-19T15:11:08;8.85;;;2.55;;
26181;SDS011;13927;51.534;11.866;2023-09-19T15:13:35;6.72;;;2.35;;
26181;SDS011;13927;51.534;11.866;2023-09-19T15:16:03;5.47;;;2.35;;
26181;SDS011;13927;51.534;11.866;2023-09-19T15:18:38;6.53;;;2.67;;
26181;SDS011;13927;51.534;11.866;2023-09-19T15:21:07;5.63;;;2.35;;
26181;SDS011;13927;51.534;11.866;2023-09-19T15:23:36;8.68;;;2.97;;
26181;SDS011;13927;51.534;11.866;2023-09-19T15:26:04;7.18;;;2.53;;
26181;SDS011;13927;51.534;11.866;2023-09-19T15:28:32;7.00;;;2.47;;
26181;SDS011;13927;51.534;11.866;2023-09-19T15:31:03;5.65;;;2.10;;
26181;SDS011;13927;51.534;11.866;2023-09-19T15:33:34;4.07;;;2.10;;
26181;SDS011;13927;51.534;11.866;2023-09-19T15:36:10;6.15;;;2.50;;
26181;SDS011;13927;51.534;11.866;2023-09-19T15:41:26;5.55;;;2.97;;
26181;SDS011;13927;51.534;11.866;2023-09-19T15:43:54;5.82;;;2.13;;
26181;SDS011;13927;51.534;11.866;2023-09-19T15:46:21;4.82;;;2.30;;
26181;SDS011;13927;51.534;11.866;2023-09-19T15:48:47;5.90;;;2.50;;